Wetterdaten: Woche 26.12.11 - 01.01.12 (KW52)
Datum Zeit Temp. A. Feuchte A. Luftdruck Regen Wind Richtung Taupunkt Windchill Windben
26.12.2011 00:00 5,8 C 67 % 1035,4 hPa 0,0 l/m 7,4 km/h W 0,1 C 4,9 C 20,9 km/h
26.12.2011 01:00 5,8 C 69 % 1035,2 hPa 0,0 l/m 8,9 km/h W 0,4 C 3,8 C 25,3 km/h
26.12.2011 02:00 5,9 C 68 % 1035,5 hPa 0,0 l/m 8,7 km/h W-NW 0,4 C 4,0 C 23,3 km/h
26.12.2011 03:00 5,9 C 71 % 1035,6 hPa 0,0 l/m 8,4 km/h W-NW 0,9 C 4,2 C 24,1 km/h
26.12.2011 04:00 5,9 C 71 % 1035,1 hPa 0,0 l/m 8,8 km/h N-NW 1,1 C 4,0 C 25,7 km/h
26.12.2011 05:00 6,0 C 73 % 1035,1 hPa 0,0 l/m 7,1 km/h W-SW 1,5 C 5,4 C 25,3 km/h
26.12.2011 06:00 6,2 C 74 % 1035,4 hPa 0,0 l/m 6,1 km/h NW 1,9 C 5,9 C 21,7 km/h
26.12.2011 07:00 6,3 C 76 % 1035,8 hPa 0,0 l/m 6,3 km/h NO 2,4 C 6,1 C 21,3 km/h
26.12.2011 08:00 6,7 C 76 % 1036,2 hPa 0,0 l/m 7,8 km/h W-NW 2,8 C 5,5 C 23,7 km/h
26.12.2011 09:00 6,7 C 79 % 1036,3 hPa 0,0 l/m 7,7 km/h NO 3,3 C 5,6 C 24,9 km/h
26.12.2011 10:00 6,8 C 80 % 1037,1 hPa 0,0 l/m 6,4 km/h SW 3,5 C 6,2 C 20,9 km/h
26.12.2011 11:00 6,8 C 79 % 1036,7 hPa 0,0 l/m 7,3 km/h W-NW 3,5 C 6,1 C 24,1 km/h
26.12.2011 12:00 7,2 C 78 % 1036,4 hPa 0,0 l/m 7,2 km/h W-NW 3,6 C 6,5 C 22,9 km/h
26.12.2011 13:00 7,4 C 77 % 1036,6 hPa 0,0 l/m 6,3 km/h W-NW 3,6 C 7,2 C 19,7 km/h
26.12.2011 14:00 7,4 C 77 % 1036,8 hPa 0,0 l/m 4,0 km/h W 3,6 C 7,4 C 16,1 km/h
26.12.2011 15:00 7,6 C 77 % 1037,0 hPa 0,0 l/m 4,3 km/h N-NW 3,7 C 7,6 C 16,1 km/h
26.12.2011 16:00 7,4 C 76 % 1037,4 hPa 0,0 l/m 3,5 km/h W 3,5 C 7,4 C 12,1 km/h
26.12.2011 17:00 7,5 C 76 % 1037,3 hPa 0,0 l/m 4,1 km/h W-NW 3,5 C 7,5 C 17,7 km/h
26.12.2011 18:00 7,7 C 75 % 1037,5 hPa 0,0 l/m 5,1 km/h NW 3,5 C 7,7 C 18,1 km/h
26.12.2011 19:00 7,7 C 74 % 1037,8 hPa 0,0 l/m 5,6 km/h W 3,4 C 7,6 C 19,7 km/h
26.12.2011 20:00 7,6 C 75 % 1037,8 hPa 0,0 l/m 4,9 km/h W-SW 3,4 C 7,6 C 20,1 km/h
26.12.2011 21:00 7,3 C 75 % 1037,8 hPa 0,0 l/m 3,7 km/h W 3,2 C 7,3 C 13,3 km/h
26.12.2011 22:00 7,6 C 74 % 1038,2 hPa 0,0 l/m 3,8 km/h W 3,2 C 7,6 C 14,5 km/h
26.12.2011 23:00 7,7 C 73 % 1038,3 hPa 0,0 l/m 4,1 km/h W 3,2 C 7,7 C 14,9 km/h
27.12.2011 00:00 7,7 C 73 % 1038,2 hPa 0,0 l/m 2,3 km/h W-NW 3,1 C 7,7 C 12,1 km/h
27.12.2011 01:00 7,4 C 73 % 1037,9 hPa 0,0 l/m 1,2 km/h W 2,9 C 7,4 C 7,2 km/h
27.12.2011 02:00 6,8 C 74 % 1037,8 hPa 0,0 l/m 0,5 km/h N 2,5 C 6,8 C 4,8 km/h
27.12.2011 03:00 5,2 C 74 % 1037,9 hPa 0,0 l/m 0,1 km/h N 1,0 C 5,2 C 1,6 km/h
27.12.2011 04:00 2,9 C 78 % 1038,0 hPa 0,0 l/m 0,0 km/h N -0,5 C 2,9 C 0,0 km/h
27.12.2011 05:00 2,2 C 81 % 1037,8 hPa 0,0 l/m 0,0 km/h N -0,7 C 2,2 C 0,0 km/h
27.12.2011 06:00 1,9 C 82 % 1038,0 hPa 0,0 l/m 0,0 km/h N -0,9 C 1,9 C 0,4 km/h
27.12.2011 07:00 1,1 C 83 % 1038,1 hPa 0,0 l/m 0,0 km/h N -1,5 C 1,1 C 0,4 km/h
27.12.2011 08:00 0,4 C 84 % 1038,3 hPa 0,0 l/m 0,0 km/h N -2,0 C 0,4 C 0,4 km/h
27.12.2011 09:00 1,0 C 84 % 1038,4 hPa 0,0 l/m 0,0 km/h N -1,3 C 1,0 C 0,0 km/h
27.12.2011 10:00 3,3 C 83 % 1038,3 hPa 0,0 l/m 0,0 km/h N 0,6 C 3,3 C 1,2 km/h
27.12.2011 11:00 5,1 C 83 % 1037,3 hPa 0,0 l/m 0,1 km/h N 2,4 C 5,1 C 2,0 km/h
27.12.2011 12:00 6,8 C 82 % 1036,5 hPa 0,0 l/m 0,4 km/h O-SO 3,9 C 6,8 C 3,6 km/h
27.12.2011 13:00 8,0 C 75 % 1036,0 hPa 0,0 l/m 0,5 km/h N 3,7 C 8,0 C 3,6 km/h
27.12.2011 14:00 8,5 C 72 % 1035,7 hPa 0,0 l/m 0,3 km/h N 3,7 C 8,5 C 2,8 km/h
27.12.2011 15:00 8,5 C 70 % 1035,7 hPa 0,0 l/m 0,1 km/h N 3,4 C 8,5 C 1,6 km/h
27.12.2011 16:00 7,4 C 72 % 1035,9 hPa 0,0 l/m 0,1 km/h N 2,7 C 7,4 C 2,0 km/h
27.12.2011 17:00 6,8 C 77 % 1036,2 hPa 0,0 l/m 0,4 km/h N 3,1 C 6,8 C 3,6 km/h
27.12.2011 18:00 6,6 C 77 % 1036,3 hPa 0,0 l/m 0,0 km/h N 2,8 C 6,6 C 0,4 km/h
27.12.2011 19:00 5,9 C 79 % 1036,5 hPa 0,0 l/m 0,1 km/h N-NW 2,6 C 5,9 C 1,6 km/h
27.12.2011 20:00 6,1 C 81 % 1036,7 hPa 0,0 l/m 1,7 km/h NW 3,0 C 6,1 C 6,4 km/h
27.12.2011 21:00 6,3 C 79 % 1036,6 hPa 0,0 l/m 2,2 km/h NW 3,0 C 6,3 C 6,8 km/h
27.12.2011 22:00 6,3 C 80 % 1036,2 hPa 0,0 l/m 2,5 km/h N-NW 3,0 C 6,3 C 11,7 km/h
27.12.2011 23:00 6,2 C 80 % 1036,0 hPa 0,0 l/m 2,3 km/h N 3,0 C 6,2 C 7,6 km/h
28.12.2011 00:00 6,1 C 81 % 1035,8 hPa 0,0 l/m 0,6 km/h N-NW 3,0 C 6,1 C 4,4 km/h
28.12.2011 01:00 5,9 C 82 % 1035,4 hPa 0,0 l/m 0,3 km/h N 3,0 C 5,9 C 3,6 km/h
28.12.2011 02:00 5,8 C 82 % 1035,3 hPa 0,0 l/m 0,1 km/h N 2,9 C 5,8 C 2,4 km/h
28.12.2011 03:00 5,6 C 83 % 1034,9 hPa 0,0 l/m 0,1 km/h N 3,0 C 5,6 C 2,0 km/h
28.12.2011 04:00 5,4 C 83 % 1034,5 hPa 0,0 l/m 0,4 km/h N 2,8 C 5,4 C 3,6 km/h
28.12.2011 05:00 5,4 C 84 % 1034,3 hPa 0,0 l/m 1,0 km/h SW 2,8 C 5,4 C 5,6 km/h
28.12.2011 06:00 5,2 C 84 % 1034,2 hPa 0,0 l/m 0,6 km/h N 2,7 C 5,2 C 4,0 km/h
28.12.2011 07:00 5,0 C 84 % 1033,9 hPa 0,0 l/m 0,6 km/h N 2,5 C 5,0 C 4,8 km/h
28.12.2011 08:00 4,9 C 84 % 1033,7 hPa 0,0 l/m 0,4 km/h N 2,4 C 4,9 C 5,6 km/h
28.12.2011 09:00 4,8 C 84 % 1033,4 hPa 0,0 l/m 0,5 km/h N 2,4 C 4,8 C 4,8 km/h
28.12.2011 10:00 5,1 C 84 % 1032,9 hPa 0,0 l/m 0,4 km/h SO 2,6 C 5,1 C 3,6 km/h
28.12.2011 11:00 5,3 C 84 % 1031,9 hPa 0,0 l/m 0,8 km/h N 2,7 C 5,3 C 5,6 km/h
28.12.2011 12:00 5,3 C 83 % 1030,7 hPa 0,0 l/m 1,1 km/h O 2,7 C 5,3 C 6,8 km/h
28.12.2011 13:00 5,0 C 83 % 1029,7 hPa 0,0 l/m 1,3 km/h O 2,4 C 5,0 C 7,6 km/h
28.12.2011 14:00 4,4 C 84 % 1028,8 hPa 0,0 l/m 1,3 km/h O 2,0 C 4,4 C 7,6 km/h
28.12.2011 15:00 4,1 C 84 % 1028,3 hPa 0,0 l/m 0,6 km/h N 1,7 C 4,1 C 5,2 km/h
28.12.2011 16:00 3,9 C 85 % 1028,4 hPa 0,0 l/m 0,2 km/h N 1,6 C 3,9 C 3,2 km/h
28.12.2011 17:00 3,8 C 85 % 1028,1 hPa 0,0 l/m 0,3 km/h N 1,5 C 3,8 C 4,0 km/h
28.12.2011 18:00 3,6 C 85 % 1027,8 hPa 0,0 l/m 0,2 km/h N 1,3 C 3,6 C 2,8 km/h
28.12.2011 19:00 3,4 C 85 % 1027,4 hPa 0,0 l/m 0,3 km/h N 1,1 C 3,4 C 3,6 km/h
28.12.2011 20:00 3,1 C 85 % 1026,8 hPa 0,0 l/m 0,2 km/h N 0,7 C 3,1 C 3,6 km/h
28.12.2011 21:00 2,9 C 84 % 1026,3 hPa 0,0 l/m 0,1 km/h N 0,4 C 2,9 C 2,8 km/h
28.12.2011 22:00 2,7 C 84 % 1025,9 hPa 0,0 l/m 0,7 km/h SO 0,3 C 2,7 C 6,0 km/h
28.12.2011 23:00 2,5 C 84 % 1025,5 hPa 0,0 l/m 0,3 km/h N 0,1 C 2,5 C 4,4 km/h
29.12.2011 00:00 2,5 C 85 % 1025,2 hPa 0,0 l/m 0,3 km/h N 0,1 C 2,5 C 3,6 km/h
29.12.2011 01:00 2,4 C 85 % 1025,0 hPa 0,0 l/m 0,2 km/h N 0,1 C 2,4 C 4,8 km/h
29.12.2011 02:00 2,4 C 85 % 1024,4 hPa 0,0 l/m 0,5 km/h N 0,1 C 2,4 C 5,2 km/h
29.12.2011 03:00 2,3 C 85 % 1024,4 hPa 0,0 l/m 0,7 km/h S 0,0 C 2,3 C 6,0 km/h
29.12.2011 04:00 2,2 C 85 % 1024,3 hPa 0,0 l/m 0,2 km/h S -0,1 C 2,2 C 2,8 km/h
29.12.2011 05:00 1,2 C 85 % 1024,1 hPa 0,0 l/m 0,5 km/h N -1,0 C 1,2 C 4,0 km/h
29.12.2011 06:00 0,0 C 85 % 1024,0 hPa 0,0 l/m 0,3 km/h N -2,2 C 0,0 C 3,2 km/h
29.12.2011 07:00 0,5 C 84 % 1023,6 hPa 0,0 l/m 0,4 km/h N -1,9 C 0,5 C 4,4 km/h
29.12.2011 08:00 0,3 C 84 % 1023,6 hPa 0,0 l/m 0,2 km/h N -2,1 C 0,3 C 2,4 km/h
29.12.2011 09:00 0,7 C 84 % 1023,7 hPa 0,0 l/m 0,2 km/h N -1,8 C 0,7 C 4,0 km/h
29.12.2011 10:00 2,2 C 83 % 1023,6 hPa 0,0 l/m 3,5 km/h W-NW -0,4 C 1,2 C 15,7 km/h
29.12.2011 11:00 5,9 C 81 % 1022,8 hPa 0,0 l/m 10,3 km/h W-NW 2,8 C 2,9 C 25,8 km/h
29.12.2011 12:00 6,6 C 77 % 1022,0 hPa 0,0 l/m 8,2 km/h N-NW 2,9 C 5,1 C 24,9 km/h
29.12.2011 13:00 6,7 C 75 % 1021,5 hPa 0,0 l/m 7,4 km/h NW 2,5 C 5,6 C 25,4 km/h
29.12.2011 14:00 6,2 C 71 % 1021,1 hPa 0,0 l/m 7,1 km/h W 1,3 C 5,5 C 22,9 km/h
29.12.2011 15:00 5,9 C 70 % 1021,1 hPa 0,0 l/m 11,1 km/h W-NW 0,8 C 2,3 C 30,2 km/h
29.12.2011 16:00 5,5 C 70 % 1021,3 hPa 0,0 l/m 10,1 km/h W-NW 0,5 C 2,5 C 27,8 km/h
29.12.2011 17:00 5,3 C 72 % 1021,6 hPa 0,0 l/m 8,1 km/h W-NW 0,6 C 3,8 C 24,1 km/h
29.12.2011 18:00 5,1 C 70 % 1021,9 hPa 0,0 l/m 8,7 km/h NW 0,1 C 3,2 C 24,5 km/h
29.12.2011 19:00 5,0 C 69 % 1021,8 hPa 0,0 l/m 6,3 km/h NW -0,2 C 4,9 C 20,9 km/h
29.12.2011 20:00 4,8 C 69 % 1021,1 hPa 0,0 l/m 6,6 km/h W-NW -0,4 C 4,4 C 23,3 km/h
29.12.2011 21:00 4,6 C 68 % 1020,3 hPa 0,0 l/m 5,4 km/h W -0,8 C 4,6 C 20,1 km/h
29.12.2011 22:00 4,2 C 66 % 1019,0 hPa 0,0 l/m 1,6 km/h W-SW -1,5 C 4,2 C 10,5 km/h
29.12.2011 23:00 4,1 C 60 % 1018,2 hPa 0,0 l/m 2,3 km/h S-SW -2,9 C 4,1 C 13,7 km/h
30.12.2011 00:00 4,6 C 56 % 1017,2 hPa 0,0 l/m 5,5 km/h S -3,6 C 4,6 C 20,5 km/h
30.12.2011 01:00 4,8 C 55 % 1016,0 hPa 0,0 l/m 4,2 km/h W -3,5 C 4,8 C 19,3 km/h
30.12.2011 02:00 3,8 C 57 % 1015,2 hPa 0,0 l/m 0,5 km/h N -3,9 C 3,8 C 4,8 km/h
30.12.2011 03:00 2,0 C 62 % 1014,0 hPa 0,0 l/m 0,3 km/h N -4,6 C 2,0 C 3,6 km/h
30.12.2011 04:00 1,7 C 63 % 1012,0 hPa 0,0 l/m 1,7 km/h S-SO -4,6 C 1,7 C 8,4 km/h
30.12.2011 05:00 3,4 C 56 % 1010,4 hPa 0,0 l/m 6,9 km/h S -4,5 C 2,6 C 19,3 km/h
30.12.2011 06:00 4,0 C 53 % 1009,5 hPa 0,0 l/m 4,5 km/h S-SO -4,6 C 4,0 C 16,5 km/h
30.12.2011 07:00 3,5 C 56 % 1008,4 hPa 0,0 l/m 1,2 km/h S -4,4 C 3,5 C 8,0 km/h
30.12.2011 08:00 2,6 C 62 % 1008,3 hPa 0,0 l/m 0,3 km/h N -3,9 C 2,6 C 2,4 km/h
30.12.2011 09:00 3,0 C 65 % 1008,6 hPa 0,0 l/m 0,1 km/h N -3,1 C 3,0 C 3,6 km/h
30.12.2011 10:00 4,0 C 66 % 1008,8 hPa 0,0 l/m 1,5 km/h W-SW -1,7 C 4,0 C 6,4 km/h
30.12.2011 11:00 5,7 C 69 % 1008,6 hPa 0,0 l/m 10,8 km/h W 0,4 C 2,4 C 30,6 km/h
30.12.2011 12:00 5,6 C 64 % 1008,3 hPa 0,0 l/m 12,1 km/h W-NW -0,7 C 1,4 C 33,4 km/h
30.12.2011 13:00 5,5 C 63 % 1008,1 hPa 0,0 l/m 12,7 km/h W-SW -1,0 C 1,0 C 33,8 km/h
30.12.2011 14:00 4,8 C 64 % 1008,2 hPa 0,0 l/m 17,7 km/h W -1,3 C -2,4 C 38,6 km/h
30.12.2011 15:00 4,2 C 66 % 1008,5 hPa 0,0 l/m 18,0 km/h W-NW -1,7 C -3,4 C 38,2 km/h
30.12.2011 16:00 3,9 C 65 % 1009,7 hPa 0,0 l/m 13,5 km/h W-SW -2,0 C -1,4 C 35,0 km/h
30.12.2011 17:00 3,8 C 70 % 1010,1 hPa 0,0 l/m 13,7 km/h W-NW -1,2 C -1,7 C 34,6 km/h
30.12.2011 18:00 3,5 C 72 % 1010,9 hPa 0,0 l/m 12,1 km/h W -1,0 C -0,9 C 34,6 km/h
30.12.2011 19:00 3,6 C 73 % 1011,9 hPa 0,0 l/m 9,9 km/h W -0,9 C 0,5 C 27,8 km/h
30.12.2011 20:00 3,3 C 74 % 1012,3 hPa 0,0 l/m 12,1 km/h W-NW -0,9 C -1,2 C 29,8 km/h
30.12.2011 21:00 3,3 C 74 % 1012,8 hPa 0,0 l/m 11,6 km/h W-NW -0,9 C -0,9 C 30,6 km/h
30.12.2011 22:00 3,3 C 73 % 1013,3 hPa 0,0 l/m 9,6 km/h W-NW -1,1 C 0,6 C 27,0 km/h
30.12.2011 23:00 3,6 C 72 % 1013,6 hPa 0,0 l/m 9,4 km/h W -1,0 C 1,0 C 24,1 km/h
31.12.2011 00:00 3,5 C 72 % 1014,0 hPa 0,0 l/m 9,1 km/h NW -1,0 C 1,2 C 33,8 km/h
31.12.2011 01:00 3,5 C 71 % 1014,4 hPa 0,0 l/m 9,5 km/h NW -1,3 C 0,9 C 25,8 km/h
31.12.2011 02:00 3,2 C 74 % 1015,2 hPa 0,0 l/m 10,5 km/h W-NW -1,0 C -0,2 C 27,0 km/h
31.12.2011 03:00 3,0 C 75 % 1015,4 hPa 0,0 l/m 7,0 km/h W-NW -1,0 C 2,3 C 22,1 km/h
31.12.2011 04:00 3,0 C 75 % 1015,6 hPa 0,0 l/m 5,7 km/h W-NW -1,1 C 2,7 C 20,1 km/h
31.12.2011 05:00 2,8 C 74 % 1015,7 hPa 0,0 l/m 6,0 km/h SW -1,5 C 2,4 C 20,9 km/h
31.12.2011 06:00 2,9 C 74 % 1015,9 hPa 0,0 l/m 6,2 km/h W-NW -1,4 C 2,5 C 20,1 km/h
31.12.2011 07:00 2,8 C 73 % 1016,2 hPa 0,0 l/m 7,2 km/h W -1,5 C 2,0 C 22,5 km/h
31.12.2011 08:00 2,8 C 73 % 1017,2 hPa 0,0 l/m 5,4 km/h W-SW -1,7 C 2,8 C 20,1 km/h
31.12.2011 09:00 3,1 C 72 % 1017,6 hPa 0,0 l/m 4,6 km/h W-NW -1,5 C 3,1 C 18,5 km/h
31.12.2011 10:00 3,9 C 69 % 1017,5 hPa 0,0 l/m 4,6 km/h W -1,3 C 3,9 C 16,1 km/h
31.12.2011 11:00 4,9 C 65 % 1017,1 hPa 0,0 l/m 3,5 km/h W -1,2 C 4,9 C 14,1 km/h
31.12.2011 12:00 5,6 C 60 % 1016,5 hPa 0,0 l/m 3,8 km/h W -1,6 C 5,6 C 14,1 km/h
31.12.2011 13:00 5,7 C 55 % 1016,0 hPa 0,0 l/m 3,1 km/h W-SW -2,5 C 5,7 C 12,5 km/h
31.12.2011 14:00 5,6 C 54 % 1016,1 hPa 0,0 l/m 1,7 km/h W -3,0 C 5,6 C 8,0 km/h
31.12.2011 15:00 5,0 C 55 % 1016,5 hPa 0,0 l/m 1,0 km/h W -3,4 C 5,0 C 6,8 km/h
31.12.2011 16:00 2,8 C 61 % 1016,8 hPa 0,0 l/m 0,1 km/h N -3,9 C 2,8 C 2,0 km/h
31.12.2011 17:00 0,9 C 70 % 1016,9 hPa 0,0 l/m 0,1 km/h N -3,9 C 0,9 C 2,0 km/h
31.12.2011 18:00 0,6 C 73 % 1017,3 hPa 0,0 l/m 0,0 km/h N -3,7 C 0,6 C 0,4 km/h
31.12.2011 19:00 0,2 C 75 % 1017,7 hPa 0,0 l/m 0,0 km/h N -3,7 C 0,2 C 0,0 km/h
31.12.2011 20:00 0,2 C 78 % 1017,8 hPa 0,0 l/m 0,0 km/h N -3,2 C 0,2 C 1,6 km/h
31.12.2011 21:00 0,8 C 79 % 1017,8 hPa 0,0 l/m 0,2 km/h N -2,6 C 0,8 C 2,4 km/h
31.12.2011 22:00 0,8 C 77 % 1017,5 hPa 0,0 l/m 0,0 km/h N -2,7 C 0,8 C 1,2 km/h
31.12.2011 23:00 0,6 C 78 % 1017,5 hPa 0,0 l/m 0,3 km/h N -2,8 C 0,6 C 3,2 km/h
01.01.2012 00:00 0,7 C 79 % 1017,6 hPa 0,0 l/m 0,0 km/h N -2,6 C 0,7 C 0,8 km/h
01.01.2012 01:00 1,1 C 80 % 1017,6 hPa 0,0 l/m 0,0 km/h N -2,0 C 1,1 C 0,0 km/h
01.01.2012 02:00 1,1 C 80 % 1017,6 hPa 0,0 l/m 0,0 km/h N -2,0 C 1,1 C 0,0 km/h
01.01.2012 03:00 1,3 C 82 % 1017,6 hPa 0,3 l/m 0,0 km/h N -1,4 C 1,3 C 0,0 km/h
01.01.2012 04:00 1,3 C 84 % 1017,8 hPa 0,3 l/m 0,0 km/h N -1,1 C 1,3 C 0,0 km/h
01.01.2012 05:00 1,3 C 84 % 1018,2 hPa 0,0 l/m 0,0 km/h N -1,1 C 1,3 C 0,8 km/h
01.01.2012 06:00 1,6 C 84 % 1018,3 hPa 0,3 l/m 0,0 km/h N -0,8 C 1,6 C 0,8 km/h
01.01.2012 07:00 1,9 C 84 % 1018,8 hPa 0,5 l/m 0,1 km/h N -0,5 C 1,9 C 2,0 km/h
01.01.2012 08:00 1,9 C 84 % 1019,2 hPa 0,3 l/m 0,1 km/h N -0,6 C 1,9 C 1,6 km/h
01.01.2012 09:00 1,8 C 83 % 1019,4 hPa 0,0 l/m 0,3 km/h N -0,8 C 1,8 C 4,4 km/h
01.01.2012 10:00 1,9 C 83 % 1019,7 hPa 0,3 l/m 0,2 km/h N -0,7 C 1,9 C 5,6 km/h
01.01.2012 11:00 2,0 C 83 % 1019,5 hPa 0,5 l/m 0,1 km/h N -0,6 C 2,0 C 2,4 km/h
01.01.2012 12:00 2,2 C 82 % 1019,4 hPa 0,0 l/m 0,1 km/h N -0,5 C 2,2 C 2,4 km/h
01.01.2012 13:00 2,5 C 82 % 1019,2 hPa 0,0 l/m 0,2 km/h N -0,3 C 2,5 C 4,4 km/h
01.01.2012 14:00 2,8 C 82 % 1019,4 hPa 0,0 l/m 0,1 km/h N 0,1 C 2,8 C 2,0 km/h
01.01.2012 15:00 3,0 C 82 % 1019,5 hPa 0,0 l/m 0,1 km/h N 0,2 C 3,0 C 3,2 km/h
01.01.2012 16:00 3,1 C 82 % 1019,6 hPa 0,5 l/m 0,1 km/h N 0,3 C 3,1 C 3,6 km/h
01.01.2012 17:00 3,1 C 82 % 1019,8 hPa 1,3 l/m 0,2 km/h N 0,3 C 3,1 C 3,2 km/h
01.01.2012 18:00 3,1 C 82 % 1019,9 hPa 1,0 l/m 0,1 km/h N 0,3 C 3,1 C 2,8 km/h
01.01.2012 19:00 3,1 C 81 % 1019,9 hPa 0,0 l/m 0,0 km/h N 0,2 C 3,1 C 1,2 km/h
01.01.2012 20:00 2,9 C 81 % 1020,1 hPa 0,0 l/m 0,2 km/h N 0,1 C 2,9 C 4,4 km/h
01.01.2012 21:00 2,9 C 81 % 1020,1 hPa 0,0 l/m 0,0 km/h N -0,0 C 2,9 C 0,4 km/h
01.01.2012 22:00 2,5 C 82 % 1019,9 hPa 0,0 l/m 0,0 km/h N -0,3 C 2,5 C 1,6 km/h
01.01.2012 23:00 2,3 C 81 % 1019,4 hPa 0,0 l/m 0,0 km/h N -0,6 C 2,3 C 2,0 km/h
Min-Datum _ 29.12.11 31.12.11 30.12.11 - 27.12.11 - 30.12.11 30.12.11 27.12.11
_ Min-Zeit 06:30 14:30 12:45 - 03:15 - 06:15 14:45 03:15
Minimum _ -0,2 C 52 % 1008,0 hPa - 0,0 km/h - -4,7 C -4,1 C 0,0 km/h
Max-Datum _ 27.12.11 27.12.11 27.12.11 01.01.12 30.12.11 - 27.12.11 27.12.11 30.12.11
_ Max-Zeit 14:45 09:00 09:15 17:30 14:45 - 12:30 15:00 14:45
Maximum _ 8,7 C 85 % 1038,4 hPa 1,3 l/m 20,6 km/h
W
- 4,0 C 8,7 C 51,5 km/h
N-NW
Durchschnitt _ 4,2 C 76 % 1024,8 hPa #5,2 l/m 3,3 km/h W-NW 0,2 C 3,6 C 11,4 km/h